Time;durP1;ratioP1;P1;durP2;ratioP2;P2;SDS_P1;SDS_P2;PMS_P1;PMS_P2;Temp;Humidity;BMP_temperature;BMP_pressure;BME280_temperature;BME280_humidity;BME280_pressure;Samples;Min_cycle;Max_cycle;Signal;HPM_P1;HPM_P2
2023/06/24 00:00:11;;;;;;;14.60;10.00;;;;;;;15.39;100.00;101687.13;107508;1257;62070;-74
2023/06/24 00:02:41;;;;;;;14.50;11.80;;;;;;;15.39;99.91;101688.27;107554;1256;60416;-74
2023/06/24 00:05:08;;;;;;;15.60;10.90;;;;;;;15.37;99.90;101689.92;107411;1257;73710;-73
2023/06/24 00:07:44;;;;;;;12.40;10.90;;;;;;;15.34;99.93;101694.39;107509;1258;71067;-73
2023/06/24 00:10:13;;;;;;;12.80;10.50;;;;;;;15.30;99.75;101695.34;107333;1257;71408;-73
2023/06/24 00:12:43;;;;;;;13.40;8.70;;;;;;;15.27;99.56;101700.85;107334;1257;62578;-73
2023/06/24 00:15:10;;;;;;;13.70;9.30;;;;;;;15.25;99.09;101699.41;107749;1257;60844;-74
2023/06/24 00:17:36;;;;;;;13.10;9.20;;;;;;;15.21;98.94;101701.64;107489;1257;74355;-74
2023/06/24 00:20:05;;;;;;;11.50;9.00;;;;;;;15.17;98.83;101705.12;107331;1262;69976;-74
2023/06/24 00:22:32;;;;;;;13.90;9.90;;;;;;;15.12;98.70;101700.59;107420;1260;71542;-74
2023/06/24 00:25:00;;;;;;;12.60;9.80;;;;;;;15.05;98.73;101695.66;107126;1260;62973;-74
2023/06/24 00:27:27;;;;;;;12.30;9.60;;;;;;;14.98;98.74;101696.42;107808;1257;61335;-74
2023/06/24 00:29:54;;;;;;;12.80;9.20;;;;;;;14.92;98.74;101701.94;107162;1257;73445;-74
2023/06/24 00:32:21;;;;;;;14.20;9.60;;;;;;;14.85;98.83;101703.06;107642;1257;69915;-74
2023/06/24 00:34:50;;;;;;;16.20;10.10;;;;;;;14.79;99.06;101705.20;107117;1256;73130;-74
2023/06/24 00:37:17;;;;;;;13.10;9.30;;;;;;;14.73;99.24;101704.94;106985;1257;61906;-74
2023/06/24 00:39:44;;;;;;;13.80;9.60;;;;;;;14.66;99.38;101698.56;107159;1258;59548;-74
2023/06/24 00:42:11;;;;;;;16.00;10.50;;;;;;;14.60;99.66;101700.50;107419;1258;488287;-74
2023/06/24 00:44:39;;;;;;;13.40;10.50;;;;;;;14.55;99.85;101705.50;107728;1256;71030;-74
2023/06/24 00:47:08;;;;;;;15.30;10.70;;;;;;;14.51;100.00;101704.40;107188;1257;72668;-73
2023/06/24 00:49:35;;;;;;;15.20;10.90;;;;;;;14.46;99.96;101709.16;107058;1257;62038;-73
2023/06/24 00:52:02;;;;;;;14.70;10.00;;;;;;;14.43;100.00;101712.63;107758;1257;61276;-73
2023/06/24 00:54:30;;;;;;;17.40;11.00;;;;;;;14.39;100.00;101714.16;107323;1257;73491;-72
2023/06/24 00:57:02;;;;;;;14.60;10.40;;;;;;;14.36;100.00;101714.34;107316;1257;71254;-73
2023/06/24 00:59:31;;;;;;;16.40;11.10;;;;;;;14.32;100.00;101716.02;106964;1257;70845;-73
2023/06/24 01:02:01;;;;;;;14.90;10.70;;;;;;;14.28;100.00;101716.57;108144;1256;60680;-73
2023/06/24 01:04:28;;;;;;;14.10;11.30;;;;;;;14.24;100.00;101719.70;106922;1256;61145;-73
2023/06/24 01:06:56;;;;;;;14.10;10.50;;;;;;;14.20;100.00;101716.54;106857;1261;74787;-74
2023/06/24 01:09:24;;;;;;;14.40;10.70;;;;;;;14.17;100.00;101718.19;107309;1257;70202;-75
2023/06/24 01:11:51;;;;;;;15.30;11.30;;;;;;;14.14;100.00;101717.51;106658;1256;71852;-73
2023/06/24 01:14:20;;;;;;;13.40;10.30;;;;;;;14.10;100.00;101721.79;106687;1262;61234;-72
2023/06/24 01:17:06;;;;;;;14.90;11.10;;;;;;;14.06;100.00;101722.47;106750;1257;61275;-74
2023/06/24 01:20:00;;;;;;;16.70;10.60;;;;;;;14.00;100.00;101717.05;107093;1257;75110;-73
2023/06/24 01:22:51;;;;;;;13.30;10.30;;;;;;;13.96;100.00;101716.13;107025;1258;69928;-73
2023/06/24 01:25:43;;;;;;;15.40;11.20;;;;;;;13.90;100.00;101711.79;106939;1257;71438;-74
2023/06/24 01:28:38;;;;;;;18.10;11.30;;;;;;;13.86;100.00;101710.95;107173;1256;62675;-73
2023/06/24 01:31:43;;;;;;;15.10;11.10;;;;;;;13.81;100.00;101714.86;106750;1256;61674;-73
2023/06/24 01:34:25;;;;;;;16.80;11.20;;;;;;;13.76;100.00;101717.77;106284;1263;73056;-73
2023/06/24 01:37:13;;;;;;;17.00;10.50;;;;;;;13.72;100.00;101717.73;107296;1264;71491;-73
2023/06/24 01:40:10;;;;;;;13.70;11.00;;;;;;;13.67;100.00;101724.73;108304;1256;71525;-73
2023/06/24 01:42:42;;;;;;;15.00;10.90;;;;;;;13.62;100.00;101730.94;106449;1256;61231;-73
2023/06/24 01:45:14;;;;;;;15.40;10.90;;;;;;;13.58;100.00;101731.56;108131;1257;59376;-73
2023/06/24 01:47:47;;;;;;;15.90;10.20;;;;;;;13.54;100.00;101733.98;106782;1257;74740;-74
2023/06/24 01:50:16;;;;;;;15.70;10.30;;;;;;;13.49;100.00;101733.05;107927;1257;70537;-73
2023/06/24 01:52:45;;;;;;;13.30;10.30;;;;;;;13.46;100.00;101728.73;106614;1258;72404;-73
2023/06/24 01:55:16;;;;;;;15.90;10.90;;;;;;;13.43;100.00;101724.66;106857;1262;61360;-73
2023/06/24 01:57:45;;;;;;;16.40;10.90;;;;;;;13.40;100.00;101726.86;107121;1256;61335;-73
2023/06/24 02:00:13;;;;;;;15.60;10.60;;;;;;;13.38;100.00;101728.89;108000;1256;73653;-72
2023/06/24 02:02:40;;;;;;;15.10;10.40;;;;;;;13.35;100.00;101733.66;107051;1257;71841;-73
2023/06/24 02:05:09;;;;;;;16.30;10.80;;;;;;;13.32;100.00;101736.30;107386;1263;71467;-73
2023/06/24 02:07:38;;;;;;;15.30;10.60;;;;;;;13.29;100.00;101736.48;106528;1260;61454;-73
2023/06/24 02:10:07;;;;;;;13.90;10.40;;;;;;;13.26;100.00;101738.00;107090;1257;61205;-73
2023/06/24 02:12:35;;;;;;;13.20;10.10;;;;;;;13.22;100.00;101737.19;107066;1257;73441;-73
2023/06/24 02:15:04;;;;;;;14.90;10.30;;;;;;;13.19;100.00;101735.80;106480;1260;69577;-73
2023/06/24 02:17:31;;;;;;;13.70;9.90;;;;;;;13.15;100.00;101738.13;106515;1257;71597;-75
2023/06/24 02:19:59;;;;;;;13.10;9.70;;;;;;;13.11;100.00;101737.14;106983;1257;62304;-72
2023/06/24 02:22:27;;;;;;;13.70;9.40;;;;;;;13.05;100.00;101733.46;107237;1258;61621;-74
2023/06/24 02:24:54;;;;;;;13.80;9.70;;;;;;;13.02;100.00;101731.36;106517;1256;73804;-74
2023/06/24 02:27:21;;;;;;;15.40;9.10;;;;;;;12.98;100.00;101730.39;106402;1257;70269;-76
2023/06/24 02:29:48;;;;;;;14.10;9.50;;;;;;;12.94;100.00;101729.90;106366;1257;73617;-74
2023/06/24 02:32:16;;;;;;;15.70;9.80;;;;;;;12.89;100.00;101732.22;106594;1258;61754;-74
2023/06/24 02:34:42;;;;;;;13.40;8.90;;;;;;;12.84;100.00;101729.89;106854;1256;61150;-74
2023/06/24 02:37:09;;;;;;;14.40;9.20;;;;;;;12.81;100.00;101727.29;107403;1258;74640;-74
2023/06/24 02:39:43;;;;;;;12.80;8.80;;;;;;;12.75;100.00;101723.92;107300;1257;70441;-73
2023/06/24 02:42:11;;;;;;;10.90;8.20;;;;;;;12.71;100.00;101726.66;106367;1256;72744;-73
2023/06/24 02:44:42;;;;;;;12.50;8.40;;;;;;;12.68;100.00;101721.47;106895;1257;61835;-73
2023/06/24 02:47:12;;;;;;;13.00;9.10;;;;;;;12.68;100.00;101720.54;106532;1257;61271;-74
2023/06/24 02:49:40;;;;;;;12.10;8.30;;;;;;;12.65;100.00;101722.83;106474;1257;73845;-73
2023/06/24 02:52:07;;;;;;;13.70;8.40;;;;;;;12.64;100.00;101722.77;107306;1257;70134;-74
2023/06/24 02:54:35;;;;;;;12.50;8.50;;;;;;;12.64;100.00;101724.79;107250;1256;72762;-73
2023/06/24 02:57:02;;;;;;;12.10;8.20;;;;;;;12.62;100.00;101726.73;108001;1256;61154;-74
2023/06/24 02:59:29;;;;;;;12.60;8.70;;;;;;;12.61;100.00;101727.69;107819;1256;61208;-74
2023/06/24 03:01:56;;;;;;;13.50;8.60;;;;;;;12.62;100.00;101731.35;107172;1257;74014;-74
2023/06/24 03:04:24;;;;;;;11.20;8.90;;;;;;;12.63;100.00;101736.40;108723;1256;69904;-74
2023/06/24 03:06:52;;;;;;;11.60;7.90;;;;;;;12.62;100.00;101737.89;108774;1257;72079;-74
2023/06/24 03:09:19;;;;;;;14.10;8.80;;;;;;;12.61;100.00;101738.23;107360;1258;62024;-75
2023/06/24 03:11:46;;;;;;;12.20;8.20;;;;;;;12.60;100.00;101737.95;108206;1256;60392;-75
2023/06/24 03:14:13;;;;;;;13.70;8.10;;;;;;;12.59;100.00;101739.11;108147;1257;72726;-74
2023/06/24 03:16:41;;;;;;;14.00;8.00;;;;;;;12.60;100.00;101743.11;106572;1262;69962;-74
2023/06/24 03:19:08;;;;;;;11.70;8.20;;;;;;;12.59;100.00;101741.95;106835;1256;71323;-75
2023/06/24 03:21:35;;;;;;;11.10;7.80;;;;;;;12.60;100.00;101744.85;106693;1257;62379;-74
2023/06/24 03:24:02;;;;;;;12.90;8.50;;;;;;;12.59;100.00;101749.24;106811;1256;61193;-74
2023/06/24 03:26:38;;;;;;;13.80;8.30;;;;;;;12.58;100.00;101750.06;106751;1257;74751;-75
2023/06/24 03:29:07;;;;;;;12.50;8.10;;;;;;;12.59;100.00;101749.13;107566;1257;70940;-76
2023/06/24 03:31:34;;;;;;;11.90;7.60;;;;;;;12.59;100.00;101749.54;107055;1257;71875;-75
2023/06/24 03:34:01;;;;;;;11.70;7.60;;;;;;;12.61;100.00;101750.80;106422;1256;61647;-75
2023/06/24 03:36:28;;;;;;;11.50;8.40;;;;;;;12.63;100.00;101749.69;106567;1256;61214;-75
2023/06/24 03:38:55;;;;;;;13.20;8.10;;;;;;;12.66;100.00;101749.42;106465;1258;72740;-75
2023/06/24 03:41:21;;;;;;;11.20;8.00;;;;;;;12.69;100.00;101752.52;107002;1256;71439;-75
2023/06/24 03:43:48;;;;;;;10.80;7.50;;;;;;;12.71;100.00;101752.66;106857;1256;73016;-75
2023/06/24 03:46:16;;;;;;;12.10;8.00;;;;;;;12.74;100.00;101752.48;106642;1256;62084;-75
2023/06/24 03:48:43;;;;;;;11.80;8.00;;;;;;;12.77;100.00;101750.17;107400;1256;61049;-74
2023/06/24 03:51:10;;;;;;;11.90;8.00;;;;;;;12.81;100.00;101752.73;107472;1258;73813;-75
2023/06/24 03:53:36;;;;;;;13.00;8.00;;;;;;;12.86;100.00;101757.75;106572;1256;70577;-75
2023/06/24 03:56:04;;;;;;;14.80;8.10;;;;;;;12.90;100.00;101757.32;106351;1256;71579;-73
2023/06/24 03:58:30;;;;;;;13.50;8.20;;;;;;;12.95;100.00;101758.58;106895;1257;61401;-75
2023/06/24 04:01:00;;;;;;;11.10;8.10;;;;;;;13.00;100.00;101751.08;106473;1257;61379;-74
2023/06/24 04:03:26;;;;;;;10.00;7.60;;;;;;;13.05;100.00;101743.12;107149;1256;73754;-75
2023/06/24 04:05:55;;;;;;;11.10;7.70;;;;;;;13.11;100.00;101743.39;107704;1256;73233;-74
2023/06/24 04:08:25;;;;;;;11.70;7.50;;;;;;;13.17;100.00;101743.80;107039;1257;73061;-75
2023/06/24 04:10:51;;;;;;;12.20;7.70;;;;;;;13.24;100.00;101743.52;106534;1257;61779;-74
2023/06/24 04:13:18;;;;;;;12.70;7.60;;;;;;;13.31;100.00;101747.75;106754;1257;61232;-75
2023/06/24 04:15:45;;;;;;;11.20;7.90;;;;;;;13.37;100.00;101747.29;106796;1256;74758;-74
2023/06/24 04:18:12;;;;;;;12.70;7.50;;;;;;;13.44;100.00;101750.79;106360;1260;69748;-74
2023/06/24 04:20:39;;;;;;;9.50;7.00;;;;;;;13.52;100.00;101756.01;107833;1257;71451;-74
2023/06/24 04:23:09;;;;;;;10.80;7.40;;;;;;;13.58;100.00;101758.49;107078;1262;60905;-74
2023/06/24 04:25:35;;;;;;;11.00;7.20;;;;;;;13.66;100.00;101760.32;106759;1256;61295;-73
2023/06/24 04:28:04;;;;;;;11.60;7.10;;;;;;;13.75;100.00;101758.48;106585;1256;73965;-73
2023/06/24 04:30:32;;;;;;;11.70;7.60;;;;;;;13.84;100.00;101756.69;106011;1262;70525;-73
2023/06/24 04:32:59;;;;;;;10.90;7.30;;;;;;;13.94;100.00;101758.45;106124;1262;71424;-74
2023/06/24 04:35:26;;;;;;;9.30;6.60;;;;;;;14.03;100.00;101762.50;106364;1257;62048;-74
2023/06/24 04:37:53;;;;;;;13.10;7.60;;;;;;;14.12;100.00;101767.88;106118;1256;61222;-73
2023/06/24 04:40:20;;;;;;;11.60;7.70;;;;;;;14.21;100.00;101774.08;107317;1256;73435;-74
2023/06/24 04:42:47;;;;;;;11.20;7.40;;;;;;;14.32;100.00;101777.88;106250;1257;70208;-74
2023/06/24 04:45:14;;;;;;;11.70;7.20;;;;;;;14.43;100.00;101776.06;106437;1256;71466;-75
2023/06/24 04:47:40;;;;;;;12.00;7.50;;;;;;;14.54;100.00;101773.29;107108;1256;61991;-74
2023/06/24 04:50:10;;;;;;;9.10;7.10;;;;;;;14.63;100.00;101769.58;107281;1258;61163;-74
2023/06/24 04:52:39;;;;;;;11.40;7.10;;;;;;;14.72;100.00;101765.90;106059;1259;75351;-74
2023/06/24 04:55:06;;;;;;;10.50;7.20;;;;;;;14.82;100.00;101766.86;106151;1257;70020;-74
2023/06/24 04:57:34;;;;;;;10.60;7.10;;;;;;;14.92;100.00;101764.38;106428;1256;72760;-75
2023/06/24 05:00:01;;;;;;;9.60;7.30;;;;;;;15.01;100.00;101767.88;107221;1256;61369;-74
2023/06/24 05:02:28;;;;;;;11.30;6.90;;;;;;;15.13;100.00;101770.13;106106;1262;61254;-74
2023/06/24 05:04:55;;;;;;;11.00;7.00;;;;;;;15.23;100.00;101772.20;106407;1257;74683;-74
2023/06/24 05:07:22;;;;;;;9.80;6.90;;;;;;;15.33;100.00;101769.16;106711;1257;71231;-74
2023/06/24 05:09:51;;;;;;;10.70;7.10;;;;;;;15.43;100.00;101771.39;106171;1256;72066;-73
2023/06/24 05:12:17;;;;;;;11.60;8.50;;;;;;;15.53;100.00;101772.38;106125;1259;61244;-73
2023/06/24 05:14:49;;;;;;;11.80;7.40;;;;;;;15.62;99.87;101775.94;106596;1256;61266;-74
2023/06/24 05:17:16;;;;;;;11.50;8.60;;;;;;;15.70;99.47;101776.77;106558;1256;73552;-74
2023/06/24 05:19:43;;;;;;;12.10;9.00;;;;;;;15.79;99.10;101780.71;106880;1256;70244;-74
2023/06/24 05:22:10;;;;;;;13.10;8.80;;;;;;;15.86;98.25;101783.83;106188;1257;71504;-74
2023/06/24 05:24:37;;;;;;;12.10;8.20;;;;;;;15.96;98.09;101784.48;107798;1256;61256;-75
2023/06/24 05:27:05;;;;;;;16.70;9.30;;;;;;;16.06;98.07;101782.36;108856;1256;59204;-75
2023/06/24 05:29:33;;;;;;;11.30;7.30;;;;;;;16.18;98.05;101786.79;108201;1261;75323;-74
2023/06/24 05:32:03;;;;;;;11.20;7.20;;;;;;;16.29;97.52;101787.39;106471;1261;70000;-75
2023/06/24 05:34:30;;;;;;;12.20;7.50;;;;;;;16.39;96.66;101789.41;106962;1258;71366;-73
2023/06/24 05:36:57;;;;;;;11.90;7.70;;;;;;;16.49;96.44;101784.23;106790;1256;61676;-74
2023/06/24 05:39:24;;;;;;;12.70;7.20;;;;;;;16.61;96.21;101785.14;106775;1256;61267;-74
2023/06/24 05:41:51;;;;;;;9.30;7.20;;;;;;;16.70;95.52;101787.60;106880;1256;73595;-74
2023/06/24 05:44:18;;;;;;;9.80;7.20;;;;;;;16.80;95.10;101784.21;106549;1256;71145;-74
2023/06/24 05:46:45;;;;;;;11.50;7.10;;;;;;;16.91;94.79;101786.53;106324;1256;73894;-74
2023/06/24 05:49:12;;;;;;;10.50;7.50;;;;;;;17.00;94.28;101787.96;106748;1256;61432;-74
2023/06/24 05:51:39;;;;;;;10.90;7.00;;;;;;;17.13;94.25;101787.50;107037;1256;61336;-73
2023/06/24 05:54:07;;;;;;;10.00;6.80;;;;;;;17.24;93.23;101793.87;106882;1256;72662;-74
2023/06/24 05:56:34;;;;;;;9.90;7.20;;;;;;;17.31;91.93;101793.68;106568;1256;70595;-75
2023/06/24 05:59:04;;;;;;;9.00;7.00;;;;;;;17.37;91.20;101795.36;106597;1256;71194;-73
2023/06/24 06:01:31;;;;;;;11.00;7.60;;;;;;;17.42;90.61;101794.48;107505;1256;61390;-72
2023/06/24 06:03:57;;;;;;;10.10;7.40;;;;;;;17.50;91.17;101791.98;107433;1257;61228;-74
2023/06/24 06:06:24;;;;;;;11.20;7.50;;;;;;;17.61;90.79;101781.84;107701;1256;72652;-74
2023/06/24 06:08:51;;;;;;;12.50;7.30;;;;;;;17.68;89.65;101784.86;108295;1256;70883;-74
2023/06/24 06:11:18;;;;;;;11.20;7.60;;;;;;;17.77;89.98;101788.23;107988;1256;72811;-73
2023/06/24 06:13:45;;;;;;;11.40;7.90;;;;;;;17.88;89.80;101784.45;108022;1256;60780;-73
2023/06/24 06:16:12;;;;;;;12.70;7.90;;;;;;;17.98;88.87;101787.70;106582;1257;59795;-72
2023/06/24 06:18:39;;;;;;;11.40;8.80;;;;;;;18.07;88.87;101784.16;106541;1258;73491;-72
2023/06/24 06:21:06;;;;;;;13.00;8.60;;;;;;;18.12;87.76;101781.50;108480;1256;69976;-75
2023/06/24 06:23:33;;;;;;;12.90;8.70;;;;;;;18.17;87.50;101778.96;106795;1256;72037;-71
2023/06/24 06:25:59;;;;;;;12.00;8.30;;;;;;;18.22;87.73;101776.38;107104;1257;61335;-72
2023/06/24 06:28:26;;;;;;;11.90;8.60;;;;;;;18.32;87.93;101775.40;108685;1256;59478;-73
2023/06/24 06:30:53;;;;;;;12.50;8.20;;;;;;;18.43;87.77;101770.63;107094;1262;73492;-73
2023/06/24 06:33:20;;;;;;;12.10;8.20;;;;;;;18.53;87.63;101768.79;107068;1260;70151;-72
2023/06/24 06:35:46;;;;;;;12.00;7.60;;;;;;;18.63;87.36;101769.73;107344;1257;71387;-72
2023/06/24 06:38:14;;;;;;;12.20;7.80;;;;;;;18.72;86.66;101777.82;106558;1257;61941;-73
2023/06/24 06:40:40;;;;;;;10.40;8.00;;;;;;;18.80;85.74;101789.13;106670;1256;61246;-71
2023/06/24 06:43:07;;;;;;;10.00;6.90;;;;;;;18.83;85.06;101794.95;108036;1256;75147;-73
2023/06/24 06:45:34;;;;;;;10.40;7.10;;;;;;;18.86;84.07;101793.89;108687;1256;70548;-73
2023/06/24 06:48:02;;;;;;;8.10;6.30;;;;;;;18.89;83.07;101795.09;108194;1256;72415;-72
2023/06/24 06:50:29;;;;;;;9.00;6.10;;;;;;;18.92;83.06;101786.18;108213;1256;63092;-72
2023/06/24 06:52:56;;;;;;;10.10;6.20;;;;;;;18.99;82.65;101780.67;107038;1256;61431;-73
2023/06/24 06:55:22;;;;;;;8.40;6.20;;;;;;;19.06;82.96;101778.42;106356;1258;72862;-73
2023/06/24 06:57:49;;;;;;;9.80;6.10;;;;;;;19.14;82.85;101777.23;106336;1256;61634;-73
2023/06/24 07:00:16;;;;;;;8.80;6.10;;;;;;;19.24;82.72;101775.59;107183;1259;71540;-73
2023/06/24 07:02:43;;;;;;;8.30;5.90;;;;;;;19.31;81.88;101776.83;106924;1259;61195;-72
2023/06/24 07:05:11;;;;;;;8.40;5.60;;;;;;;19.41;82.42;101780.02;106670;1256;61141;-73
2023/06/24 07:07:38;;;;;;;10.20;5.80;;;;;;;19.53;82.29;101788.67;107330;1256;73129;-73
2023/06/24 07:10:06;;;;;;;7.90;5.70;;;;;;;19.56;81.15;101783.90;106262;1258;71349;-73
2023/06/24 07:12:32;;;;;;;7.10;5.70;;;;;;;19.62;80.42;101780.09;106780;1257;70730;-73
2023/06/24 07:14:59;;;;;;;7.90;5.20;;;;;;;19.65;80.29;101777.15;106270;1257;61375;-72
2023/06/24 07:17:26;;;;;;;11.50;5.80;;;;;;;19.71;80.07;101782.27;107925;1259;59240;-74
2023/06/24 07:19:53;;;;;;;9.40;5.70;;;;;;;19.77;79.38;101778.27;108233;1256;74377;-73
2023/06/24 07:22:19;;;;;;;8.10;4.80;;;;;;;19.84;79.71;101776.07;106426;1257;71736;-72
2023/06/24 07:24:46;;;;;;;8.00;4.60;;;;;;;19.92;79.64;101773.33;108296;1259;71440;-73
2023/06/24 07:27:13;;;;;;;8.70;5.20;;;;;;;20.01;79.00;101777.81;108866;1256;60810;-74
2023/06/24 07:29:41;;;;;;;8.90;4.60;;;;;;;20.07;78.44;101777.83;108917;1256;60801;-73
2023/06/24 07:32:08;;;;;;;8.00;4.40;;;;;;;20.16;78.36;101779.55;108864;1257;74050;-72
2023/06/24 07:34:35;;;;;;;9.20;4.40;;;;;;;20.27;77.21;101784.33;107800;1256;70923;-71
2023/06/24 07:37:02;;;;;;;6.80;5.00;;;;;;;20.30;75.69;101785.59;106708;1257;71489;-72
2023/06/24 07:39:44;;;;;;;8.60;4.80;;;;;;;20.37;75.49;101795.52;107249;1257;62029;-72
2023/06/24 07:42:12;;;;;;;7.40;4.40;;;;;;;20.42;74.74;101805.66;106835;1256;61199;-71
2023/06/24 07:44:39;;;;;;;8.80;4.90;;;;;;;20.43;75.02;101801.09;106629;1256;72586;-71
2023/06/24 07:47:06;;;;;;;6.50;4.30;;;;;;;20.52;75.24;101797.20;106815;1257;69692;-71
2023/06/24 07:49:33;;;;;;;8.00;4.40;;;;;;;20.67;74.95;101799.11;106314;1257;72009;-72
2023/06/24 07:52:00;;;;;;;6.90;4.50;;;;;;;20.76;73.41;101793.46;106175;1257;61704;-70
2023/06/24 07:54:27;;;;;;;6.70;3.70;;;;;;;20.80;70.87;101794.18;106221;1256;62155;-71
2023/06/24 07:56:54;;;;;;;5.50;4.10;;;;;;;20.79;69.37;101796.36;107563;1256;74354;-74
2023/06/24 07:59:20;;;;;;;7.60;4.20;;;;;;;20.82;69.44;101797.05;108347;1256;71618;-73
2023/06/24 08:01:47;;;;;;;6.00;3.90;;;;;;;20.94;69.86;101800.74;108124;1257;71853;-73
2023/06/24 08:04:15;;;;;;;5.70;3.80;;;;;;;21.08;69.46;101800.45;108536;1256;62046;-74
2023/06/24 08:06:42;;;;;;;6.00;3.90;;;;;;;21.19;69.01;101796.22;108342;1256;59051;-72
2023/06/24 08:09:09;;;;;;;5.90;4.00;;;;;;;21.29;68.83;101794.11;108378;1256;74658;-73
2023/06/24 08:11:36;;;;;;;7.00;3.80;;;;;;;21.38;67.98;101800.68;108045;1256;70549;-74
2023/06/24 08:14:04;;;;;;;5.50;3.20;;;;;;;21.45;66.11;101801.62;106270;1256;72755;-72
2023/06/24 08:16:30;;;;;;;5.40;3.40;;;;;;;21.52;64.62;101798.98;107118;1256;61324;-73
2023/06/24 08:18:57;;;;;;;6.30;3.50;;;;;;;21.56;64.36;101795.04;106411;1260;61521;-72
2023/06/24 08:21:24;;;;;;;5.40;3.50;;;;;;;21.63;64.64;101794.90;107982;1256;74075;-74
2023/06/24 08:23:51;;;;;;;4.30;3.40;;;;;;;21.74;64.95;101791.85;106849;1257;71289;-73
2023/06/24 08:26:21;;;;;;;4.70;3.30;;;;;;;21.82;64.44;101788.65;106360;1256;72716;-75
2023/06/24 08:28:48;;;;;;;5.10;3.30;;;;;;;21.86;63.07;101784.45;106406;1256;62256;-74
2023/06/24 08:31:15;;;;;;;4.70;3.60;;;;;;;21.86;63.05;101784.41;106645;1256;61253;-74
2023/06/24 08:33:45;;;;;;;4.50;3.20;;;;;;;21.86;63.09;101781.04;107244;1257;72828;-73
2023/06/24 08:36:12;;;;;;;5.90;3.70;;;;;;;21.89;62.48;101783.84;108482;1259;71237;-74
2023/06/24 08:38:39;;;;;;;5.10;3.40;;;;;;;21.98;64.26;101785.13;108920;1256;72735;-74
2023/06/24 08:41:06;;;;;;;7.80;3.90;;;;;;;22.13;63.55;101781.08;107726;1256;61849;-74
2023/06/24 08:43:33;;;;;;;5.20;3.20;;;;;;;22.20;62.06;101782.00;107914;1256;60360;-75
2023/06/24 08:45:59;;;;;;;5.10;3.60;;;;;;;22.24;62.39;101780.34;107893;1256;74677;-73
2023/06/24 08:48:29;;;;;;;5.50;3.30;;;;;;;22.34;61.71;101785.06;106170;1256;69811;-75
2023/06/24 08:50:58;;;;;;;5.00;3.40;;;;;;;22.38;60.52;101787.88;106470;1256;72682;-73
2023/06/24 08:53:26;;;;;;;5.60;3.30;;;;;;;22.45;60.75;101790.30;106387;1259;61661;-76
2023/06/24 08:55:54;;;;;;;6.20;3.60;;;;;;;22.53;59.98;101788.20;107010;1256;61379;-74
2023/06/24 08:58:21;;;;;;;5.20;3.20;;;;;;;22.60;60.32;101783.75;106409;1256;74156;-73
2023/06/24 09:00:48;;;;;;;4.20;3.20;;;;;;;22.72;60.67;101780.66;106688;1256;71831;-73
2023/06/24 09:03:15;;;;;;;4.50;3.10;;;;;;;22.84;59.61;101784.31;106257;1256;70826;-75
2023/06/24 09:05:44;;;;;;;4.60;3.10;;;;;;;22.89;58.60;101783.54;107664;1257;61251;-74
2023/06/24 09:08:11;;;;;;;5.20;3.20;;;;;;;22.95;57.62;101784.65;107065;1256;61247;-73
2023/06/24 09:10:37;;;;;;;4.60;3.10;;;;;;;22.96;56.89;101782.52;106871;1256;74058;-73
2023/06/24 09:13:06;;;;;;;5.50;3.40;;;;;;;23.02;57.80;101779.24;107412;1256;71610;-75
2023/06/24 09:15:37;;;;;;;4.60;3.40;;;;;;;23.11;57.37;101778.98;107393;1256;74259;-74
2023/06/24 09:18:05;;;;;;;4.80;3.10;;;;;;;23.16;56.50;101781.40;106540;1256;61394;-72
2023/06/24 09:20:33;;;;;;;4.50;3.10;;;;;;;23.20;56.51;101776.13;106047;1259;61243;-73
2023/06/24 09:23:01;;;;;;;4.50;3.00;;;;;;;23.29;55.98;101770.28;106196;1256;73356;-74
2023/06/24 09:25:28;;;;;;;4.90;3.10;;;;;;;23.43;56.92;101766.05;106443;1256;69938;-74
2023/06/24 09:27:58;;;;;;;4.70;3.00;;;;;;;23.54;55.14;101763.27;106219;1258;72742;-75
2023/06/24 09:30:26;;;;;;;3.40;2.50;;;;;;;23.63;55.18;101763.20;107223;1259;61355;-73
2023/06/24 09:32:53;;;;;;;4.60;2.80;;;;;;;23.66;53.71;101760.52;107967;1257;59555;-74
2023/06/24 09:35:25;;;;;;;5.30;2.80;;;;;;;23.80;54.41;101748.98;106354;1256;73553;-73
2023/06/24 09:38:00;;;;;;;4.80;2.60;;;;;;;23.94;53.43;101745.06;106200;1256;71119;-74
2023/06/24 09:40:27;;;;;;;4.00;2.30;;;;;;;24.02;52.41;101749.73;106287;1256;71618;-73
2023/06/24 09:43:01;;;;;;;4.20;2.40;;;;;;;23.97;51.67;101751.91;106372;1259;61247;-75
2023/06/24 09:45:29;;;;;;;3.60;2.60;;;;;;;23.92;52.13;101748.38;106298;1257;60466;-74
2023/06/24 09:47:57;;;;;;;4.60;2.50;;;;;;;23.94;51.65;101749.94;106716;1257;73500;-74
2023/06/24 09:50:24;;;;;;;4.20;2.50;;;;;;;23.94;52.37;101744.92;107298;1257;71167;-74
2023/06/24 09:52:52;;;;;;;4.60;2.70;;;;;;;24.11;53.13;101749.38;107189;1257;71994;-74
2023/06/24 09:55:19;;;;;;;5.10;2.70;;;;;;;24.23;52.60;101745.81;106265;1259;61247;-75
2023/06/24 09:57:50;;;;;;;3.80;2.40;;;;;;;24.32;52.45;101746.88;106186;1256;61270;-73
2023/06/24 10:00:19;;;;;;;5.40;2.70;;;;;;;24.33;51.49;101746.67;106110;1257;73148;-73
2023/06/24 10:02:47;;;;;;;7.60;2.60;;;;;;;24.43;51.63;101739.65;106317;1256;70043;-75
2023/06/24 10:05:14;;;;;;;4.70;2.60;;;;;;;24.60;52.15;101736.40;106697;1256;71387;-75
2023/06/24 10:07:42;;;;;;;4.20;2.60;;;;;;;24.75;51.94;101732.92;106787;1256;61387;-73
2023/06/24 10:10:10;;;;;;;4.60;2.50;;;;;;;24.86;51.46;101734.59;107955;1256;60417;-74
2023/06/24 10:12:37;;;;;;;4.70;2.40;;;;;;;24.97;51.79;101729.84;106192;1256;72518;-74
2023/06/24 10:15:05;;;;;;;4.10;2.70;;;;;;;25.09;50.45;101732.41;106168;1256;72251;-74
2023/06/24 10:17:32;;;;;;;3.50;2.80;;;;;;;25.13;49.82;101731.00;106201;1256;72491;-74
2023/06/24 10:20:04;;;;;;;5.70;3.00;;;;;;;25.10;50.09;101730.96;106085;1256;61180;-72
2023/06/24 10:22:31;;;;;;;4.00;2.60;;;;;;;25.07;49.95;101732.44;106372;1256;61772;-74
2023/06/24 10:25:02;;;;;;;3.90;2.70;;;;;;;25.08;49.70;101730.79;108941;1256;74064;-74
2023/06/24 10:27:32;;;;;;;4.50;2.80;;;;;;;25.07;50.50;101736.52;108222;1256;71442;-73
2023/06/24 10:30:03;;;;;;;3.90;3.00;;;;;;;25.10;50.20;101728.79;106942;1256;71487;-72
2023/06/24 10:32:41;;;;;;;3.40;2.50;;;;;;;25.09;49.96;101726.70;106246;1258;61248;-74
2023/06/24 10:35:23;;;;;;;5.20;2.80;;;;;;;25.13;49.50;101724.23;106209;1256;61286;-73
2023/06/24 10:37:58;;;;;;;3.50;2.30;;;;;;;25.19;49.24;101719.71;106147;1258;72803;-73
2023/06/24 10:40:43;;;;;;;5.30;2.40;;;;;;;25.29;49.09;101716.50;107158;1256;71175;-75
2023/06/24 10:43:25;;;;;;;3.90;2.50;;;;;;;25.35;48.83;101711.29;106037;1256;72666;-74
2023/06/24 10:45:56;;;;;;;3.90;2.50;;;;;;;25.43;48.29;101703.85;107237;1256;61132;-74
2023/06/24 10:48:23;;;;;;;4.40;2.60;;;;;;;25.51;48.71;101705.86;107285;1256;61274;-72
2023/06/24 10:50:50;;;;;;;4.50;2.70;;;;;;;25.56;48.31;101697.71;106252;1257;74556;-73
2023/06/24 10:53:20;;;;;;;5.50;2.90;;;;;;;25.66;48.05;101698.66;106172;1256;69049;-73
2023/06/24 10:55:47;;;;;;;5.50;2.50;;;;;;;25.79;48.33;101694.05;106401;1260;72053;-74
2023/06/24 10:58:15;;;;;;;5.40;2.80;;;;;;;25.84;47.13;101693.23;107161;1256;61148;-72
2023/06/24 11:00:46;;;;;;;5.30;2.40;;;;;;;25.92;47.39;101694.66;106164;1256;61305;-73
2023/06/24 11:03:19;;;;;;;4.10;2.60;;;;;;;26.03;47.59;101684.36;106835;1256;75837;-74
2023/06/24 11:05:46;;;;;;;4.10;2.80;;;;;;;26.17;46.65;101683.75;107110;1258;70226;-73
2023/06/24 11:08:13;;;;;;;5.40;2.60;;;;;;;26.35;47.78;101682.20;106121;1257;71502;-73
2023/06/24 11:10:49;;;;;;;4.00;2.40;;;;;;;26.60;46.83;101677.66;106283;1257;61173;-74
2023/06/24 11:13:19;;;;;;;3.60;2.50;;;;;;;26.80;46.44;101679.38;106194;1256;61212;-74
2023/06/24 11:15:46;;;;;;;3.70;2.20;;;;;;;26.97;45.88;101674.87;106744;1256;72829;-74